TMI weather

Tumling Tar Airport
Tumling Tar, Kosi, Nepal

Public forecast

Using degrees Celsius for public forecast. Weather courtesy of forecast.io.

Closest aviation weather report (METAR) to Tumling Tar Airport

Closest report is Bagdogra Airport, 71.7 nm (132.7 km) ESE. Retrieved 2020/08/06 06:30 UTC (46 minutes ago):

VEBD 060630Z 09006KT 6000 FEW015 SCT050 BKN090 33/25 Q1002 TEMPO RAIN

Closest aviation forecast (TAF) to Tumling Tar Airport

Closest forecast is Bagdogra Airport, 71.7 nm (132.7 km) ESE. Retrieved 2020/08/06 06:30 UTC (46 minutes ago):

TAF VEBD 060330Z 0606/0618 07010KT 6000 SCT025 SCT090 TEMPO 0609/0613 2000 TSRA SCT020 FEW030CB BKN090